Aérodrome :
LOGIN :

S'inscrire | Disclaimer

   EN    FR    IT 

 










Légende :    VFR   VFR Marginal   IFR   IFR Intensif   IFR Très Intensif
Visi : 
Plafond : 
>= 8 km
>= 3000ft
5 à 8 km
1000 à 3000 ft
1500m à 5 km
500 à 1000 ft
800 à 1500m
200 à 500 ft
< 800m
< 200 ft
Symboles :   Orages  Brouillard  Fortes neiges  Fortes précipitations  Vent > 20 kt
SIGMETs :   Divers  Orages  Givrage  Turbulence  Onde Orograph.  Cendres Volcan.







- Altitude de l'aérodrome : 302 ft
- Voir les cartes d'approche


LFPM - Melun Villaroche

DERNIER METAR :
  • 231530Z AUTO 27019KT 9999 FEW015/// BKN021/// BKN029/// ///TCU 11/08 Q1004

METARs EXPIRÉS :
  • 231500Z AUTO 26021KT 9999 BKN015 OVC021 11/09 Q1004
  • 231430Z AUTO 25020KT 9000 -RA BKN015 OVC020 10/09 Q1004
  • 231400Z AUTO 25024KT 9999 OVC018 11/08 Q1003
  • 231330Z AUTO 25021KT 9999 OVC019 11/07 Q1004
  • 231300Z AUTO 24023KT 9999 OVC020 10/07 Q1004

Prévision TAF périmée.
ATIS : +33 1 64 14 28 44
Pas de NOTAMs connus pour ce terrain.
2 SIGMETs publiés pour la FIR Paris (LFFF) :
 
Turbulence forte
LFFF SIGMET 4 VALID 231600/232000 LFPW
LFFF PARIS FIR/UIR SEV TURB FCST N OF N4830 SFC/FL050 MOV NE 25KT WKN=
Turbulence forte
LFFF SIGMET 3 VALID 231300/231600 LFPW
LFFF PARIS FIR/UIR SEV TURB FCST N OF LINE N4815 W00015 - N4745 E00445 SFC/FL050 MOV NE 20KT NC=



MET'MAP, la Météo Aéronautique d'un coup d'oeil ! - Copyright ORBIFLY Décembre 2007 - Disclaimer

ORBIFLY MET'MAP TEAM :

Programmation & Développement : Alexandra Zaïnal
Conception & Développement : Baudouin d'Aumeries
Co-Programmation & Développement : Marc-Olivier Méhu
Soutien technique & logistique : Manuel Goepfert

Contact : metmap@orbifly.com




SOURCES & CREDITS :

   NOAA